Time;durP1;ratioP1;P1;durP2;ratioP2;P2;SDS_P1;SDS_P2;PMS_P1;PMS_P2;Temp;Humidity;BMP_temperature;BMP_pressure;BME280_temperature;BME280_humidity;BME280_pressure;Samples;Min_cycle;Max_cycle;Signal;HPM_P1;HPM_P2
2022/06/19 00:02:27;;;;;;;24.23;10.13;;;25.30;75.40;;;;;;4994432;28;20184;-67
2022/06/19 00:04:55;;;;;;;28.90;10.68;;;25.20;76.30;;;;;;4998975;28;20185;-68
2022/06/19 00:07:22;;;;;;;27.85;11.10;;;25.20;71.30;;;;;;5029887;28;20192;-68
2022/06/19 00:09:48;;;;;;;23.95;10.82;;;25.30;74.90;;;;;;4997366;28;20273;-69
2022/06/19 00:12:16;;;;;;;34.85;11.15;;;25.30;74.60;;;;;;5013573;28;20673;-69
2022/06/19 00:14:42;;;;;;;31.70;11.55;;;25.30;74.60;;;;;;4995663;28;20318;-69
2022/06/19 00:17:09;;;;;;;35.00;11.05;;;25.30;74.60;;;;;;5001935;28;20311;-68
2022/06/19 00:19:36;;;;;;;23.70;10.25;;;25.30;74.90;;;;;;4977839;28;20298;-68
2022/06/19 00:22:03;;;;;;;31.73;11.32;;;25.30;75.00;;;;;;4974475;28;20189;-67
2022/06/19 00:24:29;;;;;;;27.38;10.98;;;25.30;74.50;;;;;;4958024;28;20193;-68
2022/06/19 00:26:56;;;;;;;23.58;10.35;;;25.30;74.20;;;;;;4974135;28;20236;-68
2022/06/19 00:29:22;;;;;;;35.10;11.02;;;25.30;74.20;;;;;;4973970;28;20235;-68
2022/06/19 00:31:48;;;;;;;27.23;11.05;;;25.20;73.50;;;;;;4974198;28;20248;-69
2022/06/19 00:34:14;;;;;;;22.73;10.52;;;25.20;74.00;;;;;;4974446;28;20204;-69
2022/06/19 00:36:40;;;;;;;23.85;10.32;;;25.30;73.90;;;;;;4975062;28;20213;-69
2022/06/19 00:39:06;;;;;;;23.48;9.85;;;25.30;73.60;;;;;;4957845;28;20241;-68
2022/06/19 00:41:39;;;;;;;22.42;10.38;;;25.20;73.60;;;;;;4974180;28;20208;-68
2022/06/19 00:44:11;;;;;;;20.98;9.52;;;25.20;73.80;;;;;;4983852;28;20222;-69
2022/06/19 00:46:47;;;;;;;17.00;9.80;;;25.30;74.00;;;;;;5005776;28;20176;-69
2022/06/19 00:49:58;;;;;;;20.10;9.38;;;25.20;73.70;;;;;;4996387;28;20298;-69
2022/06/19 00:52:34;;;;;;;20.00;8.98;;;25.20;74.10;;;;;;4984484;28;20693;-68
2022/06/19 00:55:16;;;;;;;24.30;9.35;;;25.20;74.00;;;;;;5028436;28;20198;-68
2022/06/19 00:57:50;;;;;;;26.42;10.05;;;25.30;74.60;;;;;;5013718;28;20204;-69
2022/06/19 01:00:26;;;;;;;24.70;10.27;;;25.30;74.20;;;;;;5012476;28;20294;-68
2022/06/19 01:03:05;;;;;;;20.63;9.30;;;25.30;74.60;;;;;;5012565;28;20168;-68
2022/06/19 01:05:34;;;;;;;30.67;10.38;;;25.30;75.00;;;;;;5028964;28;20195;-69
2022/06/19 01:08:01;;;;;;;33.47;10.52;;;25.30;75.10;;;;;;5013759;28;20211;-68
2022/06/19 01:10:32;;;;;;;29.23;10.45;;;25.30;75.90;;;;;;5012749;28;20200;-68
2022/06/19 01:12:58;;;;;;;29.73;9.93;;;25.30;75.70;;;;;;5012244;28;20655;-68
2022/06/19 01:15:26;;;;;;;33.22;10.57;;;25.30;75.60;;;;;;5026215;28;20188;-68
2022/06/19 01:17:58;;;;;;;34.58;11.07;;;25.40;74.70;;;;;;4993700;28;20197;-68
2022/06/19 01:20:27;;;;;;;24.60;9.52;;;25.40;75.40;;;;;;4992562;28;20748;-68
2022/06/19 01:23:17;;;;;;;30.45;10.13;;;25.40;74.70;;;;;;4994196;28;20188;-68
2022/06/19 01:25:44;;;;;;;30.65;9.88;;;25.40;74.00;;;;;;4992635;28;20173;-69
2022/06/19 01:31:08;;;;;;;19.50;8.27;;;25.40;74.20;;;;;;4992557;28;20200;-69
2022/06/19 01:33:45;;;;;;;21.52;9.18;;;25.40;74.40;;;;;;4991605;28;20199;-68
2022/06/19 01:36:14;;;;;;;33.90;8.88;;;25.40;74.90;;;;;;4992421;28;20196;-69
2022/06/19 01:38:43;;;;;;;23.67;8.88;;;25.40;75.10;;;;;;4992256;28;20235;-68
2022/06/19 01:41:19;;;;;;;21.10;9.10;;;25.40;75.20;;;;;;4993528;28;20181;-69
2022/06/19 01:43:46;;;;;;;29.25;8.23;;;25.40;74.80;;;;;;4990137;28;20172;-68
2022/06/19 01:46:17;;;;;;;21.67;8.20;;;25.40;74.70;;;;;;4990305;28;20229;-68
2022/06/19 01:48:44;;;;;;;21.25;8.05;;;25.40;74.40;;;;;;5009200;28;20263;-68
2022/06/19 01:51:10;;;;;;;26.35;8.55;;;25.40;74.30;;;;;;5028379;28;20271;-68
2022/06/19 01:53:56;;;;;;;18.17;7.65;;;25.30;74.10;;;;;;5012373;28;20226;-69
2022/06/19 01:56:23;;;;;;;20.88;7.65;;;25.40;74.20;;;;;;5011484;28;20208;-68
2022/06/19 01:58:55;;;;;;;23.15;7.60;;;25.40;74.10;;;;;;5028140;28;20191;-68
2022/06/19 02:01:21;;;;;;;19.45;8.05;;;25.40;74.30;;;;;;5011983;28;20176;-69
2022/06/19 02:03:59;;;;;;;19.83;8.10;;;25.40;74.00;;;;;;5027676;28;20203;-69
2022/06/19 02:06:31;;;;;;;19.27;7.88;;;25.40;73.80;;;;;;5027291;28;20187;-68
2022/06/19 02:09:01;;;;;;;16.63;7.25;;;25.30;74.00;;;;;;5011495;28;20591;-68
2022/06/19 02:11:30;;;;;;;17.60;7.53;;;25.40;74.30;;;;;;5011396;28;20198;-70
2022/06/19 02:13:58;;;;;;;15.02;7.57;;;25.40;74.70;;;;;;4994349;28;20191;-69
2022/06/19 02:16:25;;;;;;;19.58;8.15;;;25.40;74.20;;;;;;5004527;28;20219;-69
2022/06/19 02:18:53;;;;;;;20.73;7.93;;;25.40;74.20;;;;;;5009711;28;20184;-68
2022/06/19 02:21:38;;;;;;;20.08;7.65;;;25.40;74.00;;;;;;5011358;28;20176;-69
2022/06/19 02:24:07;;;;;;;18.88;7.40;;;25.30;73.70;;;;;;4994459;28;20172;-68
2022/06/19 02:26:37;;;;;;;32.08;8.73;;;25.30;73.70;;;;;;5011213;28;20191;-68
2022/06/19 02:29:09;;;;;;;32.47;8.35;;;25.40;74.70;;;;;;5011133;28;20216;-67
2022/06/19 02:31:39;;;;;;;24.48;7.75;;;25.30;74.00;;;;;;5011402;28;20176;-68
2022/06/19 02:34:25;;;;;;;21.52;7.60;;;25.40;74.40;;;;;;5010634;28;20203;-68
2022/06/19 02:37:10;;;;;;;18.67;7.75;;;25.30;74.30;;;;;;4996348;28;20231;-68
2022/06/19 02:39:49;;;;;;;21.00;7.15;;;25.30;74.60;;;;;;5031767;28;20214;-68
2022/06/19 02:42:20;;;;;;;18.83;7.68;;;25.30;74.30;;;;;;5015510;28;20180;-68
2022/06/19 02:45:02;;;;;;;16.17;7.13;;;25.30;73.60;;;;;;5004478;28;20204;-68
2022/06/19 02:47:35;;;;;;;25.63;7.53;;;25.30;73.80;;;;;;4995124;28;20200;-68
2022/06/19 02:50:01;;;;;;;18.65;7.90;;;25.30;73.60;;;;;;5003377;28;20215;-68
2022/06/19 02:52:30;;;;;;;19.73;7.40;;;25.30;73.50;;;;;;4995350;28;20230;-68
2022/06/19 02:54:56;;;;;;;21.10;6.95;;;25.30;73.80;;;;;;4992228;28;20197;-68
2022/06/19 02:57:23;;;;;;;16.00;7.00;;;25.20;74.20;;;;;;5002894;28;20298;-68
2022/06/19 02:59:49;;;;;;;14.55;6.70;;;25.30;75.10;;;;;;5007920;28;20203;-68
2022/06/19 03:02:16;;;;;;;18.17;6.97;;;25.30;75.20;;;;;;5016006;28;20216;-67
2022/06/19 03:04:49;;;;;;;17.23;6.97;;;25.20;75.60;;;;;;5014121;28;20188;-67
2022/06/19 03:07:14;;;;;;;15.73;6.85;;;25.20;75.90;;;;;;5015933;28;20171;-67
2022/06/19 03:09:40;;;;;;;17.88;7.20;;;25.20;76.10;;;;;;5015924;28;20204;-68
2022/06/19 03:12:07;;;;;;;10.07;5.80;;;25.30;75.90;;;;;;4998125;28;20227;-68
2022/06/19 03:14:33;;;;;;;15.68;6.85;;;25.20;76.00;;;;;;5030634;28;20191;-68
2022/06/19 03:16:58;;;;;;;14.10;6.40;;;25.30;75.80;;;;;;5006382;28;20685;-69
2022/06/19 03:19:24;;;;;;;14.38;7.00;;;25.20;75.60;;;;;;5014617;28;20279;-67
2022/06/19 03:21:50;;;;;;;13.90;6.60;;;25.20;75.50;;;;;;5014454;28;20326;-67
2022/06/19 03:24:16;;;;;;;17.77;6.43;;;25.20;75.30;;;;;;5014012;28;20652;-68
2022/06/19 03:26:42;;;;;;;10.07;5.90;;;25.20;75.30;;;;;;5015883;28;20183;-68
2022/06/19 03:29:08;;;;;;;12.60;6.50;;;25.20;75.10;;;;;;5014285;28;20211;-67
2022/06/19 03:31:34;;;;;;;12.35;6.43;;;25.20;75.10;;;;;;5015493;28;20188;-68
2022/06/19 03:34:00;;;;;;;10.02;6.05;;;25.20;74.80;;;;;;5030112;28;20203;-67
2022/06/19 03:36:27;;;;;;;11.48;6.00;;;25.20;75.10;;;;;;4997994;28;20282;-68
2022/06/19 03:38:53;;;;;;;13.63;6.45;;;25.20;75.20;;;;;;4998110;28;20203;-68
2022/06/19 03:41:19;;;;;;;12.93;6.50;;;25.20;74.80;;;;;;5014197;28;20207;-68
2022/06/19 03:43:44;;;;;;;15.30;6.18;;;25.10;74.50;;;;;;5014687;28;20184;-68
2022/06/19 03:46:17;;;;;;;10.68;6.30;;;25.20;74.70;;;;;;4989173;28;20195;-68
2022/06/19 03:48:47;;;;;;;11.38;5.85;;;25.20;74.60;;;;;;4996528;28;20636;-68
2022/06/19 03:51:17;;;;;;;13.70;6.07;;;25.20;74.90;;;;;;5010582;28;20204;-68
2022/06/19 03:53:45;;;;;;;7.40;5.78;;;25.10;75.10;;;;;;4993796;28;20185;-68
2022/06/19 03:56:17;;;;;;;10.20;5.20;;;25.20;75.40;;;;;;4995348;28;20212;-68
2022/06/19 03:58:46;;;;;;;9.88;5.43;;;25.20;75.50;;;;;;4994248;28;20265;-69
2022/06/19 04:01:21;;;;;;;9.95;5.72;;;25.20;75.70;;;;;;5010384;28;20184;-68
2022/06/19 04:03:50;;;;;;;12.50;5.97;;;25.20;75.00;;;;;;4994731;28;20545;-68
2022/06/19 04:06:19;;;;;;;10.55;5.85;;;25.10;74.90;;;;;;4994411;28;20196;-68
2022/06/19 04:08:46;;;;;;;8.68;5.03;;;25.20;75.00;;;;;;4994241;28;20188;-68
2022/06/19 04:11:14;;;;;;;8.95;4.93;;;25.10;75.20;;;;;;4993937;28;20189;-68
2022/06/19 04:13:40;;;;;;;12.95;5.38;;;25.20;74.90;;;;;;4993467;28;20185;-68
2022/06/19 04:16:11;;;;;;;8.23;5.30;;;25.20;75.30;;;;;;5002746;28;20201;-68
2022/06/19 04:18:36;;;;;;;10.38;5.75;;;25.10;74.80;;;;;;5009847;28;20188;-68
2022/06/19 04:21:03;;;;;;;9.38;5.10;;;25.10;75.00;;;;;;5013383;28;20190;-69
2022/06/19 04:23:29;;;;;;;9.90;5.80;;;25.10;74.80;;;;;;5013051;28;20184;-67
2022/06/19 04:25:55;;;;;;;8.02;5.15;;;25.10;75.00;;;;;;5029777;28;20198;-68
2022/06/19 04:28:24;;;;;;;6.90;5.22;;;25.10;75.30;;;;;;5014513;28;20176;-68
2022/06/19 04:30:52;;;;;;;9.05;5.50;;;25.10;75.00;;;;;;5012878;28;20215;-68
2022/06/19 04:33:20;;;;;;;6.68;4.60;;;25.10;75.50;;;;;;5012340;28;20196;-67
2022/06/19 04:35:48;;;;;;;9.68;5.38;;;25.10;75.60;;;;;;5029506;28;20283;-68
2022/06/19 04:38:16;;;;;;;9.57;5.13;;;25.10;75.70;;;;;;5013366;28;20184;-68
2022/06/19 04:40:41;;;;;;;7.78;4.65;;;25.10;75.90;;;;;;5029383;28;20208;-68
2022/06/19 04:43:10;;;;;;;8.63;5.15;;;25.10;75.70;;;;;;5014168;28;20190;-68
2022/06/19 04:45:36;;;;;;;6.53;5.00;;;25.10;75.80;;;;;;5004036;28;20247;-68
2022/06/19 04:48:01;;;;;;;9.13;5.20;;;25.10;75.70;;;;;;5001141;28;20189;-68
2022/06/19 04:50:28;;;;;;;8.65;5.10;;;25.10;75.50;;;;;;4993483;28;20216;-68
2022/06/19 04:52:54;;;;;;;7.75;4.80;;;25.10;75.10;;;;;;4993335;28;20180;-68
2022/06/19 04:55:19;;;;;;;6.88;4.68;;;25.10;75.40;;;;;;5009073;28;20630;-68
2022/06/19 04:57:46;;;;;;;6.63;5.05;;;25.10;75.10;;;;;;5009429;28;20225;-68
2022/06/19 05:00:16;;;;;;;7.32;4.88;;;25.10;75.30;;;;;;5008838;28;20209;-68
2022/06/19 05:02:43;;;;;;;7.30;5.13;;;25.10;75.20;;;;;;4993071;28;20649;-68
2022/06/19 05:05:17;;;;;;;7.55;5.45;;;25.10;75.20;;;;;;5008929;28;20185;-68
2022/06/19 05:07:44;;;;;;;5.82;4.30;;;25.10;75.30;;;;;;4993197;28;20191;-68
2022/06/19 05:10:11;;;;;;;9.57;4.63;;;25.00;75.20;;;;;;4993104;28;20205;-68
2022/06/19 05:12:38;;;;;;;7.80;4.93;;;25.10;75.10;;;;;;4993140;28;20181;-69
2022/06/19 05:15:05;;;;;;;6.40;4.43;;;25.10;75.10;;;;;;4984348;28;20279;-68
2022/06/19 05:17:32;;;;;;;8.73;4.72;;;25.10;75.40;;;;;;5000888;28;20598;-68
2022/06/19 05:19:58;;;;;;;8.65;5.00;;;25.00;75.40;;;;;;4993678;28;20208;-68
2022/06/19 05:22:24;;;;;;;9.43;4.63;;;25.00;75.60;;;;;;4992763;28;20191;-68
2022/06/19 05:24:50;;;;;;;7.43;5.03;;;25.00;75.70;;;;;;4995403;28;20212;-68
2022/06/19 05:27:16;;;;;;;6.43;4.47;;;25.00;75.90;;;;;;4992457;28;20228;-68
2022/06/19 05:29:42;;;;;;;8.52;5.18;;;25.00;75.90;;;;;;4992273;28;20208;-68
2022/06/19 05:32:08;;;;;;;7.38;4.43;;;25.10;76.10;;;;;;4993759;28;20246;-68
2022/06/19 05:34:36;;;;;;;7.85;4.88;;;25.00;76.00;;;;;;4991696;28;20204;-68
2022/06/19 05:37:04;;;;;;;6.53;4.78;;;25.00;76.00;;;;;;4992264;28;20263;-68
2022/06/19 05:39:31;;;;;;;6.05;4.68;;;25.10;76.20;;;;;;4992354;28;20200;-69
2022/06/19 05:41:57;;;;;;;7.47;4.40;;;25.00;76.20;;;;;;4992632;28;20185;-70
2022/06/19 05:44:28;;;;;;;7.10;4.53;;;25.00;76.20;;;;;;4992862;28;20418;-68
2022/06/19 05:46:54;;;;;;;6.25;4.53;;;25.00;76.30;;;;;;5002250;28;20201;-69
2022/06/19 05:49:20;;;;;;;6.75;4.70;;;25.00;76.20;;;;;;4995165;28;20261;-69
2022/06/19 05:51:46;;;;;;;7.28;4.88;;;25.00;76.50;;;;;;4995422;28;20186;-68
2022/06/19 05:54:12;;;;;;;4.85;4.32;;;25.00;76.50;;;;;;5012285;28;20215;-68
2022/06/19 05:56:38;;;;;;;5.05;4.45;;;25.00;76.60;;;;;;5028127;28;20250;-68
2022/06/19 05:59:04;;;;;;;8.48;4.60;;;25.00;76.60;;;;;;4995165;28;20208;-68
2022/06/19 06:01:30;;;;;;;9.27;5.03;;;25.00;77.40;;;;;;4993271;28;20189;-69
2022/06/19 06:03:57;;;;;;;6.15;4.35;;;25.00;76.80;;;;;;4971868;28;20177;-69
2022/06/19 06:06:30;;;;;;;9.10;5.05;;;25.10;76.90;;;;;;4972370;28;20228;-69
2022/06/19 06:08:57;;;;;;;6.90;4.80;;;25.00;77.20;;;;;;4972342;28;20185;-68
2022/06/19 06:11:23;;;;;;;8.88;4.43;;;25.00;77.30;;;;;;4956052;28;20638;-68
2022/06/19 06:13:50;;;;;;;7.13;4.88;;;25.10;77.50;;;;;;4975262;28;20181;-68
2022/06/19 06:16:20;;;;;;;9.38;4.68;;;25.00;77.60;;;;;;4999340;28;20220;-69
2022/06/19 06:18:46;;;;;;;6.90;4.05;;;25.10;77.90;;;;;;4994660;28;20188;-69
2022/06/19 06:21:20;;;;;;;5.75;4.63;;;25.00;78.10;;;;;;4995703;28;20196;-68
2022/06/19 06:23:46;;;;;;;5.72;4.53;;;25.00;78.30;;;;;;4988372;28;20185;-68
2022/06/19 06:26:16;;;;;;;6.55;4.78;;;25.00;78.30;;;;;;4980448;28;20193;-68
2022/06/19 06:28:45;;;;;;;7.20;4.53;;;25.00;78.30;;;;;;4972323;28;20196;-68
2022/06/19 06:31:13;;;;;;;8.55;4.60;;;25.00;78.30;;;;;;4972338;28;20208;-67
2022/06/19 06:33:39;;;;;;;7.75;4.72;;;25.10;78.40;;;;;;4985300;28;20251;-68
2022/06/19 06:36:06;;;;;;;6.47;4.13;;;25.10;78.40;;;;;;4973472;28;20217;-68
2022/06/19 06:38:32;;;;;;;8.43;4.38;;;25.10;78.40;;;;;;4988447;28;20185;-68
2022/06/19 06:40:58;;;;;;;5.85;4.30;;;25.10;78.30;;;;;;4973299;28;20651;-69
2022/06/19 06:43:24;;;;;;;7.88;4.63;;;25.00;78.10;;;;;;4978430;28;20251;-68
2022/06/19 06:45:51;;;;;;;7.75;4.68;;;25.00;77.90;;;;;;4992499;28;20198;-68
2022/06/19 06:48:19;;;;;;;8.10;4.82;;;25.00;77.70;;;;;;4978085;28;20193;-68
2022/06/19 06:50:46;;;;;;;6.30;4.25;;;25.00;77.80;;;;;;4973229;28;20212;-68
2022/06/19 06:53:13;;;;;;;6.57;4.30;;;25.00;78.00;;;;;;4979602;28;20216;-69
2022/06/19 06:55:41;;;;;;;5.40;3.60;;;25.10;78.00;;;;;;4978961;28;20239;-68
2022/06/19 06:58:08;;;;;;;6.80;4.32;;;25.00;78.00;;;;;;4980171;28;20193;-68
2022/06/19 07:00:36;;;;;;;6.10;4.25;;;25.00;78.30;;;;;;4984632;28;20300;-68
2022/06/19 07:03:03;;;;;;;10.13;4.57;;;25.00;78.30;;;;;;4989921;28;20196;-68
2022/06/19 07:05:28;;;;;;;6.63;4.30;;;25.00;78.30;;;;;;4990555;28;20203;-69
2022/06/19 07:07:56;;;;;;;6.53;4.15;;;25.10;78.70;;;;;;5010980;28;20188;-68
2022/06/19 07:10:22;;;;;;;7.85;4.35;;;25.10;78.40;;;;;;5011158;28;20315;-68
2022/06/19 07:12:49;;;;;;;4.80;4.10;;;25.10;78.70;;;;;;5027285;28;20188;-69
2022/06/19 07:15:16;;;;;;;7.72;5.00;;;25.20;76.50;;;;;;5010280;28;20668;-68
2022/06/19 07:17:42;;;;;;;8.63;4.90;;;25.10;74.40;;;;;;4988131;28;20226;-68
2022/06/19 07:20:10;;;;;;;7.53;4.70;;;25.00;74.40;;;;;;4988166;28;20209;-68
2022/06/19 07:22:36;;;;;;;8.32;4.75;;;25.00;76.00;;;;;;4972761;28;20264;-70
2022/06/19 07:25:05;;;;;;;6.70;4.88;;;25.00;74.60;;;;;;4994486;28;20196;-68
2022/06/19 07:27:30;;;;;;;10.27;5.18;;;24.90;74.30;;;;;;4994664;28;20276;-70
2022/06/19 07:29:56;;;;;;;13.63;5.88;;;25.00;75.80;;;;;;5010924;28;20272;-69
2022/06/19 07:32:22;;;;;;;10.40;5.90;;;25.10;74.00;;;;;;4994690;28;20181;-69
2022/06/19 07:34:48;;;;;;;12.98;5.47;;;25.20;73.10;;;;;;4993537;28;20292;-69
2022/06/19 07:37:15;;;;;;;10.65;5.75;;;25.20;73.80;;;;;;4962262;28;20224;-70
2022/06/19 07:39:42;;;;;;;16.60;6.38;;;25.20;74.00;;;;;;4994851;28;20235;-69
2022/06/19 07:42:09;;;;;;;12.00;5.80;;;25.10;72.90;;;;;;4978158;28;20184;-69
2022/06/19 07:44:36;;;;;;;9.68;5.40;;;25.10;74.30;;;;;;4993013;28;20205;-69
2022/06/19 07:52:34;;;;;;;12.30;5.68;;;25.20;74.00;;;;;;4994628;28;20180;-70
2022/06/19 07:55:00;;;;;;;13.05;6.30;;;25.20;74.00;;;;;;4993838;28;20181;-71
2022/06/19 07:57:27;;;;;;;13.15;5.97;;;25.20;75.10;;;;;;4993845;28;20303;-71
2022/06/19 07:59:53;;;;;;;7.75;6.07;;;25.20;74.50;;;;;;4993668;28;20295;-69
2022/06/19 08:02:18;;;;;;;5.80;5.18;;;25.20;76.00;;;;;;4993984;28;20279;-68
2022/06/19 08:04:45;;;;;;;12.18;5.53;;;25.20;75.10;;;;;;4993443;28;20267;-68
2022/06/19 08:07:13;;;;;;;10.75;6.18;;;25.30;75.40;;;;;;4994058;28;20230;-68
2022/06/19 08:09:40;;;;;;;16.65;6.72;;;25.30;75.70;;;;;;4993976;28;20205;-68
2022/06/19 08:12:06;;;;;;;9.75;5.68;;;25.30;76.70;;;;;;4994157;28;20247;-68
2022/06/19 08:14:32;;;;;;;9.57;5.82;;;25.30;77.50;;;;;;4993439;28;20645;-67
2022/06/19 08:16:58;;;;;;;10.50;5.35;;;25.20;75.70;;;;;;5004683;28;20278;-67
2022/06/19 08:19:23;;;;;;;12.05;5.93;;;25.20;76.70;;;;;;5014408;28;20284;-67
2022/06/19 08:21:49;;;;;;;10.73;5.13;;;25.10;75.90;;;;;;5014577;28;20211;-67
2022/06/19 08:24:15;;;;;;;10.57;5.30;;;25.20;77.70;;;;;;5014063;28;20184;-69
2022/06/19 08:26:41;;;;;;;10.32;5.78;;;25.40;77.30;;;;;;5011489;28;20275;-67
2022/06/19 08:29:06;;;;;;;12.50;5.60;;;25.40;76.20;;;;;;4983118;28;20241;-68
2022/06/19 08:31:34;;;;;;;13.93;6.20;;;25.40;77.30;;;;;;4959658;28;20190;-67
2022/06/19 08:34:00;;;;;;;12.18;6.47;;;25.40;80.30;;;;;;5003687;28;20203;-67
2022/06/19 08:36:27;;;;;;;13.50;5.70;;;25.40;80.20;;;;;;5013427;28;20216;-66
2022/06/19 08:39:01;;;;;;;11.05;6.15;;;25.40;79.30;;;;;;4987698;28;20194;-67
2022/06/19 08:42:04;;;;;;;14.65;6.07;;;25.40;78.70;;;;;;5009389;28;20172;-67
2022/06/19 08:45:10;;;;;;;10.23;6.15;;;25.40;83.40;;;;;;4996964;28;20180;-67
2022/06/19 08:47:54;;;;;;;10.85;5.47;;;25.40;82.30;;;;;;5013155;28;20622;-67
2022/06/19 08:50:53;;;;;;;8.63;5.20;;;25.40;82.10;;;;;;4999418;28;20688;-67
2022/06/19 08:53:55;;;;;;;9.68;5.78;;;25.50;84.20;;;;;;4988708;28;20182;-67
2022/06/19 08:56:56;;;;;;;11.30;5.60;;;25.50;85.60;;;;;;4979629;28;20239;-67
2022/06/19 09:00:03;;;;;;;7.90;5.05;;;25.50;86.00;;;;;;5007963;28;20710;-67
2022/06/19 09:03:09;;;;;;;10.65;5.75;;;25.50;84.80;;;;;;4980658;28;20247;-67
2022/06/19 09:06:11;;;;;;;11.75;5.32;;;25.50;85.90;;;;;;4993246;28;20258;-67
2022/06/19 09:09:09;;;;;;;7.90;5.10;;;25.40;86.10;;;;;;4990181;28;20278;-67
2022/06/19 09:11:58;;;;;;;11.30;5.30;;;25.40;85.20;;;;;;5001394;28;20231;-67
2022/06/19 09:14:36;;;;;;;11.85;5.43;;;25.40;85.40;;;;;;5002333;28;20203;-67
2022/06/19 09:17:27;;;;;;;11.15;5.35;;;25.40;85.10;;;;;;4988935;28;20224;-68
2022/06/19 09:20:11;;;;;;;10.95;5.40;;;25.40;85.10;;;;;;5005308;28;20222;-67
2022/06/19 09:22:46;;;;;;;12.88;5.70;;;25.40;84.50;;;;;;5013453;28;20600;-68
2022/06/19 09:25:56;;;;;;;10.25;5.55;;;25.40;84.20;;;;;;5011338;28;20180;-67
2022/06/19 09:28:46;;;;;;;9.05;4.85;;;25.40;83.40;;;;;;5000557;28;20276;-67
2022/06/19 09:31:27;;;;;;;7.45;4.88;;;25.40;83.30;;;;;;4990987;28;20193;-67
2022/06/19 09:34:28;;;;;;;10.02;5.70;;;25.40;83.60;;;;;;4993531;28;20196;-67
2022/06/19 09:37:05;;;;;;;7.63;5.50;;;25.40;83.30;;;;;;4988052;28;20231;-68
2022/06/19 09:39:48;;;;;;;8.10;5.07;;;25.40;81.50;;;;;;4993357;28;20215;-67
2022/06/19 09:42:33;;;;;;;12.93;5.55;;;25.50;82.00;;;;;;4992345;28;20176;-67
2022/06/19 09:45:16;;;;;;;7.90;5.05;;;25.50;82.00;;;;;;4991716;28;20173;-67
2022/06/19 09:48:28;;;;;;;9.23;5.43;;;25.40;81.90;;;;;;4999260;28;20666;-67
2022/06/19 09:51:45;;;;;;;9.00;5.50;;;25.40;82.30;;;;;;5000193;28;20319;-67
2022/06/19 09:54:25;;;;;;;7.65;5.53;;;25.40;81.50;;;;;;4994733;28;20199;-67
2022/06/19 09:56:59;;;;;;;10.05;5.07;;;25.40;82.00;;;;;;5011627;28;20219;-67
2022/06/19 09:59:50;;;;;;;9.63;5.47;;;25.40;82.00;;;;;;5011553;28;20204;-67
2022/06/19 10:03:00;;;;;;;8.48;5.40;;;25.40;82.20;;;;;;5027982;28;20183;-67
2022/06/19 10:06:09;;;;;;;11.13;4.97;;;25.40;81.10;;;;;;4973088;28;20189;-67
2022/06/19 10:08:45;;;;;;;8.57;5.35;;;25.40;81.30;;;;;;4917011;29;20295;-67
2022/06/19 10:11:23;;;;;;;9.30;5.43;;;25.40;81.90;;;;;;4932735;29;20182;-67
2022/06/19 10:14:03;;;;;;;8.45;4.75;;;25.40;81.90;;;;;;4935967;28;20197;-65
2022/06/19 10:16:32;;;;;;;7.43;5.00;;;25.40;81.20;;;;;;4977576;28;20613;-67
2022/06/19 10:19:09;;;;;;;9.70;5.03;;;25.40;80.40;;;;;;4984976;28;20184;-68
2022/06/19 10:22:13;;;;;;;8.20;5.63;;;25.40;80.30;;;;;;5009002;28;20186;-67
2022/06/19 10:24:56;;;;;;;11.68;5.68;;;25.40;80.90;;;;;;4970751;28;20166;-68
2022/06/19 10:27:57;;;;;;;10.70;5.72;;;25.40;80.50;;;;;;4953830;28;20257;-67
2022/06/19 10:30:38;;;;;;;6.90;4.65;;;25.50;80.60;;;;;;4971089;28;20205;-67
2022/06/19 10:34:04;;;;;;;9.27;6.28;;;25.60;81.00;;;;;;4985956;28;20194;-66
2022/06/19 10:36:56;;;;;;;6.07;5.53;;;25.50;82.00;;;;;;4967530;28;20225;-67
2022/06/19 10:40:14;;;;;;;9.18;5.80;;;25.60;83.00;;;;;;4969677;28;20217;-66
2022/06/19 10:42:52;;;;;;;7.63;6.13;;;25.60;83.10;;;;;;4955440;28;20280;-66
2022/06/19 10:45:32;;;;;;;9.27;6.35;;;25.60;84.00;;;;;;4971966;28;20196;-66
2022/06/19 10:48:19;;;;;;;8.32;6.20;;;25.60;84.70;;;;;;4995349;28;20192;-67
2022/06/19 10:51:23;;;;;;;9.20;5.57;;;25.70;85.10;;;;;;4973412;28;20220;-67
2022/06/19 10:54:15;;;;;;;9.45;6.15;;;25.70;85.30;;;;;;4971233;28;20229;-67
2022/06/19 10:57:20;;;;;;;10.60;6.25;;;25.60;85.70;;;;;;4972575;28;20217;-67
2022/06/19 10:59:48;;;;;;;10.50;6.10;;;25.70;87.10;;;;;;4972230;28;20209;-67
2022/06/19 11:05:28;;;;;;;9.93;6.53;;;25.60;88.30;;;;;;4970268;28;20198;-67
2022/06/19 11:07:53;;;;;;;8.85;6.65;;;25.60;86.90;;;;;;4957334;28;20184;-66
2022/06/19 11:10:47;;;;;;;8.50;6.70;;;25.60;87.50;;;;;;4973236;28;20206;-67
2022/06/19 11:13:13;;;;;;;10.77;6.18;;;25.60;87.50;;;;;;4973298;28;20181;-67
2022/06/19 11:15:45;;;;;;;8.15;6.15;;;25.60;90.00;;;;;;4970931;28;20193;-67
2022/06/19 11:18:27;;;;;;;6.45;5.75;;;25.60;89.20;;;;;;4986931;28;20238;-67
2022/06/19 11:21:10;;;;;;;12.68;7.00;;;25.60;90.20;;;;;;4989248;28;20227;-67
2022/06/19 11:23:48;;;;;;;7.70;6.00;;;25.60;89.50;;;;;;4989500;28;20200;-67
2022/06/19 11:26:25;;;;;;;9.73;6.63;;;25.70;89.80;;;;;;5004216;28;20231;-67
2022/06/19 11:29:28;;;;;;;9.90;6.28;;;25.60;89.00;;;;;;4992305;28;20354;-67
2022/06/19 11:32:18;;;;;;;6.93;6.07;;;25.70;88.10;;;;;;4985967;28;20196;-67
2022/06/19 11:35:05;;;;;;;8.88;6.93;;;25.70;89.30;;;;;;4988838;28;20457;-67
2022/06/19 11:37:56;;;;;;;8.85;6.45;;;25.70;90.00;;;;;;4990670;28;20212;-66
2022/06/19 11:40:38;;;;;;;7.90;7.05;;;25.60;89.20;;;;;;4989331;28;20344;-67
2022/06/19 11:43:22;;;;;;;8.40;6.60;;;25.70;89.10;;;;;;4987565;28;20188;-67
2022/06/19 11:46:12;;;;;;;8.50;6.80;;;25.70;89.50;;;;;;5007963;28;20203;-67
2022/06/19 11:48:41;;;;;;;10.52;7.00;;;25.70;90.00;;;;;;5002001;28;20203;-67
2022/06/19 11:51:22;;;;;;;8.70;6.25;;;25.70;90.10;;;;;;5014887;28;20184;-67
2022/06/19 11:53:57;;;;;;;8.20;7.03;;;25.80;89.70;;;;;;5013265;28;20200;-66
2022/06/19 11:56:43;;;;;;;8.75;7.35;;;25.70;89.90;;;;;;5002110;28;20213;-66
2022/06/19 11:59:45;;;;;;;11.90;6.88;;;25.80;89.20;;;;;;4970026;28;20259;-67
2022/06/19 12:02:33;;;;;;;9.07;7.05;;;25.70;89.00;;;;;;4979992;28;20197;-67
2022/06/19 12:05:07;;;;;;;8.43;6.60;;;25.70;89.90;;;;;;4992220;28;20212;-67
2022/06/19 12:07:41;;;;;;;9.93;7.10;;;25.80;90.10;;;;;;4993312;28;20227;-66
2022/06/19 12:10:24;;;;;;;10.02;6.60;;;25.80;88.20;;;;;;4993001;28;20267;-67
2022/06/19 12:13:00;;;;;;;9.10;7.10;;;25.80;88.10;;;;;;4994057;28;20219;-68
2022/06/19 12:15:31;;;;;;;9.50;7.07;;;25.80;87.40;;;;;;4993424;28;20181;-68
2022/06/19 12:18:13;;;;;;;11.82;7.40;;;25.80;87.90;;;;;;5001567;28;20213;-67
2022/06/19 12:20:39;;;;;;;15.50;6.78;;;25.80;86.60;;;;;;5010397;28;20277;-68
2022/06/19 12:23:23;;;;;;;8.60;7.15;;;25.70;88.00;;;;;;4997055;28;20223;-68
2022/06/19 12:26:15;;;;;;;10.27;7.32;;;25.70;87.70;;;;;;5012582;28;20268;-68
2022/06/19 12:28:59;;;;;;;9.20;7.10;;;25.70;87.60;;;;;;5014451;28;20192;-68
2022/06/19 12:31:34;;;;;;;8.35;6.97;;;25.60;87.60;;;;;;5014342;28;20207;-68
2022/06/19 12:34:38;;;;;;;8.35;6.93;;;25.70;86.70;;;;;;5013164;28;20230;-68
2022/06/19 12:37:19;;;;;;;10.70;7.28;;;25.60;86.40;;;;;;4996958;28;20215;-68
2022/06/19 12:39:45;;;;;;;9.45;7.43;;;25.60;86.00;;;;;;5013039;28;20200;-68
2022/06/19 12:42:46;;;;;;;9.80;6.97;;;25.60;86.70;;;;;;5012953;28;20279;-68
2022/06/19 12:45:35;;;;;;;8.63;7.65;;;25.60;86.00;;;;;;5012476;28;20180;-69
2022/06/19 12:48:07;;;;;;;9.13;7.60;;;25.60;85.70;;;;;;5002274;28;20242;-68
2022/06/19 12:51:05;;;;;;;10.68;7.82;;;25.70;84.40;;;;;;5010226;28;20215;-68
2022/06/19 12:54:06;;;;;;;10.00;7.55;;;25.70;84.10;;;;;;5012813;28;20179;-68
2022/06/19 12:57:04;;;;;;;10.77;7.57;;;25.60;84.70;;;;;;5012567;28;20211;-68
2022/06/19 13:00:08;;;;;;;9.57;7.68;;;25.60;84.30;;;;;;4995731;28;20231;-68
2022/06/19 13:03:04;;;;;;;11.02;8.00;;;25.60;83.40;;;;;;4996210;28;20172;-67
2022/06/19 13:05:58;;;;;;;10.43;7.88;;;25.60;83.50;;;;;;4995920;28;20279;-68
2022/06/19 13:08:52;;;;;;;9.40;7.97;;;25.60;83.40;;;;;;5012629;28;20194;-67
2022/06/19 13:11:31;;;;;;;10.10;8.52;;;25.60;82.60;;;;;;5012623;28;20194;-67
2022/06/19 13:14:24;;;;;;;11.98;8.10;;;25.70;82.70;;;;;;5012667;28;20187;-68
2022/06/19 13:17:11;;;;;;;13.63;7.93;;;25.80;84.30;;;;;;5006348;28;20708;-67
2022/06/19 13:20:00;;;;;;;13.68;8.77;;;25.90;85.40;;;;;;5009614;28;20298;-68
2022/06/19 13:22:42;;;;;;;14.30;8.40;;;25.90;87.40;;;;;;5012712;28;20267;-67
2022/06/19 13:25:48;;;;;;;17.17;8.45;;;26.00;86.90;;;;;;5011779;28;20268;-68
2022/06/19 13:28:52;;;;;;;21.08;9.20;;;25.90;85.60;;;;;;5012314;28;20175;-68
2022/06/19 13:31:21;;;;;;;15.60;7.72;;;25.90;88.60;;;;;;4964679;28;20203;-68
2022/06/19 13:34:37;;;;;;;13.02;7.85;;;25.90;87.90;;;;;;4990539;28;20197;-68